sensor_id;sensor_type;location;lat;lon;timestamp;P1;durP1;ratioP1;P2;durP2;ratioP2
36303;SDS011;22335;49.800;8.596;2023-07-24T00:05:22;8.98;;;8.18;;
36303;SDS011;22335;49.800;8.596;2023-07-24T00:12:06;7.68;;;7.07;;
36303;SDS011;22335;49.800;8.596;2023-07-24T00:18:52;8.15;;;7.45;;
36303;SDS011;22335;49.800;8.596;2023-07-24T00:25:35;8.60;;;7.97;;
36303;SDS011;22335;49.800;8.596;2023-07-24T00:32:19;7.70;;;7.10;;
36303;SDS011;22335;49.800;8.596;2023-07-24T00:39:04;8.27;;;7.38;;
36303;SDS011;22335;49.800;8.596;2023-07-24T00:45:48;8.88;;;7.35;;
36303;SDS011;22335;49.800;8.596;2023-07-24T00:52:32;8.18;;;7.50;;
36303;SDS011;22335;49.800;8.596;2023-07-24T00:59:17;8.10;;;7.40;;
36303;SDS011;22335;49.800;8.596;2023-07-24T01:06:01;7.65;;;7.05;;
36303;SDS011;22335;49.800;8.596;2023-07-24T01:12:47;8.13;;;7.43;;
36303;SDS011;22335;49.800;8.596;2023-07-24T01:19:41;8.52;;;7.72;;
36303;SDS011;22335;49.800;8.596;2023-07-24T01:26:31;8.63;;;7.82;;
36303;SDS011;22335;49.800;8.596;2023-07-24T01:33:15;10.18;;;9.27;;
36303;SDS011;22335;49.800;8.596;2023-07-24T01:40:00;10.10;;;9.20;;
36303;SDS011;22335;49.800;8.596;2023-07-24T01:46:47;11.15;;;9.65;;
36303;SDS011;22335;49.800;8.596;2023-07-24T01:53:31;9.95;;;9.05;;
36303;SDS011;22335;49.800;8.596;2023-07-24T02:00:14;10.80;;;9.90;;
36303;SDS011;22335;49.800;8.596;2023-07-24T02:07:00;9.43;;;8.73;;
36303;SDS011;22335;49.800;8.596;2023-07-24T02:13:44;10.32;;;9.32;;
36303;SDS011;22335;49.800;8.596;2023-07-24T02:20:28;13.02;;;10.05;;
36303;SDS011;22335;49.800;8.596;2023-07-24T02:27:23;10.05;;;9.15;;
36303;SDS011;22335;49.800;8.596;2023-07-24T02:34:11;11.15;;;10.05;;
36303;SDS011;22335;49.800;8.596;2023-07-24T02:40:55;10.20;;;9.30;;
36303;SDS011;22335;49.800;8.596;2023-07-24T03:02:42;10.65;;;9.73;;
36303;SDS011;22335;49.800;8.596;2023-07-24T03:09:26;10.90;;;10.00;;
36303;SDS011;22335;49.800;8.596;2023-07-24T03:16:10;10.88;;;9.80;;
36303;SDS011;22335;49.800;8.596;2023-07-24T03:22:55;11.20;;;10.20;;
36303;SDS011;22335;49.800;8.596;2023-07-24T03:29:38;10.87;;;9.87;;
36303;SDS011;22335;49.800;8.596;2023-07-24T03:36:22;10.93;;;9.93;;
36303;SDS011;22335;49.800;8.596;2023-07-24T03:43:08;10.18;;;9.25;;
36303;SDS011;22335;49.800;8.596;2023-07-24T03:49:52;11.30;;;10.20;;
36303;SDS011;22335;49.800;8.596;2023-07-24T03:56:36;10.82;;;9.82;;
36303;SDS011;22335;49.800;8.596;2023-07-24T04:03:21;11.10;;;9.98;;
36303;SDS011;22335;49.800;8.596;2023-07-24T04:10:05;11.77;;;10.45;;
36303;SDS011;22335;49.800;8.596;2023-07-24T04:16:50;10.48;;;9.57;;
36303;SDS011;22335;49.800;8.596;2023-07-24T04:23:36;10.82;;;9.75;;
36303;SDS011;22335;49.800;8.596;2023-07-24T04:30:20;10.83;;;9.70;;
36303;SDS011;22335;49.800;8.596;2023-07-24T04:37:03;11.02;;;9.95;;
36303;SDS011;22335;49.800;8.596;2023-07-24T04:43:49;11.65;;;10.35;;
36303;SDS011;22335;49.800;8.596;2023-07-24T04:50:32;12.20;;;11.10;;
36303;SDS011;22335;49.800;8.596;2023-07-24T04:57:16;11.27;;;10.15;;
36303;SDS011;22335;49.800;8.596;2023-07-24T05:04:01;11.63;;;10.52;;
36303;SDS011;22335;49.800;8.596;2023-07-24T05:10:45;15.45;;;10.05;;
36303;SDS011;22335;49.800;8.596;2023-07-24T05:17:28;11.45;;;10.15;;
36303;SDS011;22335;49.800;8.596;2023-07-24T05:24:13;10.88;;;9.70;;
36303;SDS011;22335;49.800;8.596;2023-07-24T05:30:59;12.52;;;10.40;;
36303;SDS011;22335;49.800;8.596;2023-07-24T05:37:44;12.13;;;10.82;;
36303;SDS011;22335;49.800;8.596;2023-07-24T05:44:29;11.40;;;10.30;;
36303;SDS011;22335;49.800;8.596;2023-07-24T05:51:14;11.95;;;10.85;;
36303;SDS011;22335;49.800;8.596;2023-07-24T05:57:58;12.50;;;10.98;;
36303;SDS011;22335;49.800;8.596;2023-07-24T06:04:43;16.95;;;10.68;;
36303;SDS011;22335;49.800;8.596;2023-07-24T06:11:26;20.27;;;12.32;;
36303;SDS011;22335;49.800;8.596;2023-07-24T06:18:10;14.18;;;11.48;;
36303;SDS011;22335;49.800;8.596;2023-07-24T06:24:55;12.98;;;11.43;;
36303;SDS011;22335;49.800;8.596;2023-07-24T06:31:39;13.03;;;11.83;;
36303;SDS011;22335;49.800;8.596;2023-07-24T06:38:23;14.48;;;12.63;;
36303;SDS011;22335;49.800;8.596;2023-07-24T06:45:08;12.50;;;11.30;;
36303;SDS011;22335;49.800;8.596;2023-07-24T06:58:35;13.10;;;11.20;;
36303;SDS011;22335;49.800;8.596;2023-07-24T07:05:20;14.00;;;12.10;;
36303;SDS011;22335;49.800;8.596;2023-07-24T07:12:04;13.00;;;10.93;;
36303;SDS011;22335;49.800;8.596;2023-07-24T07:18:48;13.10;;;11.47;;
36303;SDS011;22335;49.800;8.596;2023-07-24T07:25:33;13.13;;;11.85;;
36303;SDS011;22335;49.800;8.596;2023-07-24T07:32:17;14.02;;;12.30;;
36303;SDS011;22335;49.800;8.596;2023-07-24T07:39:01;17.52;;;12.30;;
36303;SDS011;22335;49.800;8.596;2023-07-24T07:45:46;15.57;;;11.90;;
36303;SDS011;22335;49.800;8.596;2023-07-24T07:59:13;12.70;;;11.38;;
36303;SDS011;22335;49.800;8.596;2023-07-24T08:05:58;12.35;;;11.13;;
36303;SDS011;22335;49.800;8.596;2023-07-24T08:12:42;15.63;;;11.32;;
36303;SDS011;22335;49.800;8.596;2023-07-24T08:19:27;12.65;;;11.35;;
36303;SDS011;22335;49.800;8.596;2023-07-24T08:26:13;17.48;;;11.60;;
36303;SDS011;22335;49.800;8.596;2023-07-24T08:32:56;12.55;;;11.32;;
36303;SDS011;22335;49.800;8.596;2023-07-24T08:39:40;11.43;;;10.25;;
36303;SDS011;22335;49.800;8.596;2023-07-24T08:46:25;10.80;;;9.90;;
36303;SDS011;22335;49.800;8.596;2023-07-24T08:53:10;10.73;;;9.68;;
36303;SDS011;22335;49.800;8.596;2023-07-24T08:59:55;10.98;;;9.75;;
36303;SDS011;22335;49.800;8.596;2023-07-24T09:06:41;10.85;;;9.82;;
36303;SDS011;22335;49.800;8.596;2023-07-24T09:13:25;11.15;;;9.75;;
36303;SDS011;22335;49.800;8.596;2023-07-24T09:20:09;13.45;;;11.07;;
36303;SDS011;22335;49.800;8.596;2023-07-24T09:26:55;12.13;;;10.57;;
36303;SDS011;22335;49.800;8.596;2023-07-24T09:40:25;12.38;;;10.82;;
36303;SDS011;22335;49.800;8.596;2023-07-24T09:47:10;13.48;;;11.27;;
36303;SDS011;22335;49.800;8.596;2023-07-24T09:53:58;12.25;;;10.32;;
36303;SDS011;22335;49.800;8.596;2023-07-24T10:00:47;10.88;;;9.85;;
36303;SDS011;22335;49.800;8.596;2023-07-24T10:07:34;11.02;;;9.90;;
36303;SDS011;22335;49.800;8.596;2023-07-24T10:14:18;11.15;;;10.15;;
36303;SDS011;22335;49.800;8.596;2023-07-24T10:21:03;12.70;;;10.20;;
36303;SDS011;22335;49.800;8.596;2023-07-24T10:27:49;10.57;;;9.65;;
36303;SDS011;22335;49.800;8.596;2023-07-24T10:34:37;11.30;;;10.23;;
36303;SDS011;22335;49.800;8.596;2023-07-24T10:41:21;11.70;;;10.50;;
36303;SDS011;22335;49.800;8.596;2023-07-24T10:48:06;12.05;;;10.82;;
36303;SDS011;22335;49.800;8.596;2023-07-24T10:54:52;11.27;;;10.05;;
36303;SDS011;22335;49.800;8.596;2023-07-24T11:01:36;14.38;;;11.23;;
36303;SDS011;22335;49.800;8.596;2023-07-24T11:08:22;12.33;;;11.10;;
36303;SDS011;22335;49.800;8.596;2023-07-24T11:15:06;18.45;;;11.15;;
36303;SDS011;22335;49.800;8.596;2023-07-24T11:21:51;13.10;;;10.90;;
36303;SDS011;22335;49.800;8.596;2023-07-24T11:28:40;10.45;;;9.55;;
36303;SDS011;22335;49.800;8.596;2023-07-24T11:35:23;11.43;;;10.25;;
36303;SDS011;22335;49.800;8.596;2023-07-24T11:42:07;10.90;;;9.77;;
36303;SDS011;22335;49.800;8.596;2023-07-24T11:48:53;10.25;;;9.20;;
36303;SDS011;22335;49.800;8.596;2023-07-24T11:55:38;11.38;;;8.13;;
36303;SDS011;22335;49.800;8.596;2023-07-24T12:02:21;10.70;;;8.57;;
36303;SDS011;22335;49.800;8.596;2023-07-24T12:09:07;8.75;;;7.97;;
36303;SDS011;22335;49.800;8.596;2023-07-24T12:15:51;8.50;;;7.60;;
36303;SDS011;22335;49.800;8.596;2023-07-24T12:22:36;9.80;;;8.55;;
36303;SDS011;22335;49.800;8.596;2023-07-24T12:29:22;10.05;;;9.05;;
36303;SDS011;22335;49.800;8.596;2023-07-24T12:36:07;9.43;;;8.30;;
36303;SDS011;22335;49.800;8.596;2023-07-24T12:42:50;9.68;;;8.75;;
36303;SDS011;22335;49.800;8.596;2023-07-24T12:49:36;9.60;;;8.67;;
36303;SDS011;22335;49.800;8.596;2023-07-24T12:56:19;9.20;;;8.25;;
36303;SDS011;22335;49.800;8.596;2023-07-24T13:03:03;9.90;;;9.00;;
36303;SDS011;22335;49.800;8.596;2023-07-24T13:09:48;8.90;;;8.10;;
36303;SDS011;22335;49.800;8.596;2023-07-24T13:23:15;10.98;;;9.40;;
36303;SDS011;22335;49.800;8.596;2023-07-24T13:30:00;10.77;;;9.32;;
36303;SDS011;22335;49.800;8.596;2023-07-24T13:36:44;12.40;;;10.20;;
36303;SDS011;22335;49.800;8.596;2023-07-24T13:43:29;11.75;;;10.57;;
36303;SDS011;22335;49.800;8.596;2023-07-24T13:50:15;15.75;;;12.13;;
36303;SDS011;22335;49.800;8.596;2023-07-24T13:56:58;15.32;;;12.77;;
36303;SDS011;22335;49.800;8.596;2023-07-24T14:03:42;14.10;;;12.65;;
36303;SDS011;22335;49.800;8.596;2023-07-24T14:10:27;15.35;;;12.50;;
36303;SDS011;22335;49.800;8.596;2023-07-24T14:17:11;12.70;;;11.30;;
36303;SDS011;22335;49.800;8.596;2023-07-24T14:23:55;13.07;;;11.73;;
36303;SDS011;22335;49.800;8.596;2023-07-24T14:30:40;12.57;;;10.73;;
36303;SDS011;22335;49.800;8.596;2023-07-24T14:37:24;11.25;;;10.15;;
36303;SDS011;22335;49.800;8.596;2023-07-24T14:44:08;10.70;;;9.50;;
36303;SDS011;22335;49.800;8.596;2023-07-24T14:50:53;9.65;;;8.75;;
36303;SDS011;22335;49.800;8.596;2023-07-24T14:57:37;9.77;;;8.88;;
36303;SDS011;22335;49.800;8.596;2023-07-24T15:04:20;8.93;;;8.25;;
36303;SDS011;22335;49.800;8.596;2023-07-24T15:11:05;10.20;;;9.20;;
36303;SDS011;22335;49.800;8.596;2023-07-24T15:17:49;9.40;;;8.68;;
36303;SDS011;22335;49.800;8.596;2023-07-24T15:24:33;8.57;;;7.88;;
36303;SDS011;22335;49.800;8.596;2023-07-24T15:31:18;9.35;;;8.55;;
36303;SDS011;22335;49.800;8.596;2023-07-24T15:44:46;11.73;;;10.60;;
36303;SDS011;22335;49.800;8.596;2023-07-24T15:51:31;11.05;;;10.05;;
36303;SDS011;22335;49.800;8.596;2023-07-24T15:58:15;11.43;;;10.32;;
36303;SDS011;22335;49.800;8.596;2023-07-24T16:04:58;12.30;;;10.82;;
36303;SDS011;22335;49.800;8.596;2023-07-24T16:11:43;11.70;;;9.85;;
36303;SDS011;22335;49.800;8.596;2023-07-24T16:18:27;12.93;;;9.90;;
36303;SDS011;22335;49.800;8.596;2023-07-24T16:25:11;10.77;;;9.82;;
36303;SDS011;22335;49.800;8.596;2023-07-24T16:31:56;5.53;;;5.03;;
36303;SDS011;22335;49.800;8.596;2023-07-24T16:38:40;4.35;;;4.10;;
36303;SDS011;22335;49.800;8.596;2023-07-24T16:45:24;4.90;;;4.65;;
36303;SDS011;22335;49.800;8.596;2023-07-24T16:52:11;4.63;;;4.32;;
36303;SDS011;22335;49.800;8.596;2023-07-24T16:58:54;4.13;;;3.85;;
36303;SDS011;22335;49.800;8.596;2023-07-24T17:05:38;4.60;;;4.30;;
36303;SDS011;22335;49.800;8.596;2023-07-24T17:12:23;4.65;;;4.40;;
36303;SDS011;22335;49.800;8.596;2023-07-24T17:19:06;6.45;;;5.05;;
36303;SDS011;22335;49.800;8.596;2023-07-24T17:25:50;4.38;;;4.05;;
36303;SDS011;22335;49.800;8.596;2023-07-24T17:32:35;4.93;;;4.53;;
36303;SDS011;22335;49.800;8.596;2023-07-24T17:39:19;4.82;;;4.53;;
36303;SDS011;22335;49.800;8.596;2023-07-24T17:46:02;4.63;;;4.07;;
36303;SDS011;22335;49.800;8.596;2023-07-24T17:52:47;4.43;;;4.13;;
36303;SDS011;22335;49.800;8.596;2023-07-24T17:59:31;4.63;;;4.38;;
36303;SDS011;22335;49.800;8.596;2023-07-24T18:06:14;5.03;;;4.70;;
36303;SDS011;22335;49.800;8.596;2023-07-24T18:12:59;4.88;;;4.57;;
36303;SDS011;22335;49.800;8.596;2023-07-24T18:19:43;5.30;;;5.00;;
36303;SDS011;22335;49.800;8.596;2023-07-24T18:26:28;6.00;;;5.47;;
36303;SDS011;22335;49.800;8.596;2023-07-24T18:33:13;6.10;;;5.57;;
36303;SDS011;22335;49.800;8.596;2023-07-24T18:39:57;8.40;;;5.18;;
36303;SDS011;22335;49.800;8.596;2023-07-24T18:46:41;5.40;;;4.90;;
36303;SDS011;22335;49.800;8.596;2023-07-24T18:53:26;5.20;;;4.80;;
36303;SDS011;22335;49.800;8.596;2023-07-24T19:00:11;5.35;;;4.93;;
36303;SDS011;22335;49.800;8.596;2023-07-24T19:06:58;5.40;;;4.95;;
36303;SDS011;22335;49.800;8.596;2023-07-24T19:13:43;5.53;;;5.20;;
36303;SDS011;22335;49.800;8.596;2023-07-24T19:20:27;5.72;;;5.32;;
36303;SDS011;22335;49.800;8.596;2023-07-24T19:27:11;5.27;;;4.87;;
36303;SDS011;22335;49.800;8.596;2023-07-24T19:33:56;4.97;;;4.72;;
36303;SDS011;22335;49.800;8.596;2023-07-24T19:40:40;5.53;;;5.03;;
36303;SDS011;22335;49.800;8.596;2023-07-24T19:47:25;5.03;;;4.72;;
36303;SDS011;22335;49.800;8.596;2023-07-24T19:54:10;5.70;;;5.38;;
36303;SDS011;22335;49.800;8.596;2023-07-24T20:00:54;5.00;;;4.75;;
36303;SDS011;22335;49.800;8.596;2023-07-24T20:07:56;5.30;;;4.78;;
36303;SDS011;22335;49.800;8.596;2023-07-24T20:14:41;5.13;;;4.65;;
36303;SDS011;22335;49.800;8.596;2023-07-24T20:21:24;5.88;;;5.47;;
36303;SDS011;22335;49.800;8.596;2023-07-24T20:28:09;4.97;;;4.57;;
36303;SDS011;22335;49.800;8.596;2023-07-24T20:34:55;4.85;;;4.55;;
36303;SDS011;22335;49.800;8.596;2023-07-24T20:41:38;5.67;;;5.37;;
36303;SDS011;22335;49.800;8.596;2023-07-24T20:48:22;5.18;;;4.88;;
36303;SDS011;22335;49.800;8.596;2023-07-24T20:55:09;5.38;;;4.95;;
36303;SDS011;22335;49.800;8.596;2023-07-24T21:01:53;5.50;;;5.20;;
36303;SDS011;22335;49.800;8.596;2023-07-24T21:08:37;5.20;;;4.95;;
36303;SDS011;22335;49.800;8.596;2023-07-24T21:15:22;5.10;;;4.80;;
36303;SDS011;22335;49.800;8.596;2023-07-24T21:22:24;5.20;;;4.80;;
36303;SDS011;22335;49.800;8.596;2023-07-24T21:29:09;5.17;;;4.70;;
36303;SDS011;22335;49.800;8.596;2023-07-24T21:36:00;5.50;;;5.20;;
36303;SDS011;22335;49.800;8.596;2023-07-24T21:42:44;5.60;;;5.20;;
36303;SDS011;22335;49.800;8.596;2023-07-24T21:49:28;5.28;;;4.93;;
36303;SDS011;22335;49.800;8.596;2023-07-24T21:56:14;5.30;;;5.00;;
36303;SDS011;22335;49.800;8.596;2023-07-24T22:02:58;5.47;;;5.07;;
36303;SDS011;22335;49.800;8.596;2023-07-24T22:09:41;5.20;;;4.90;;
36303;SDS011;22335;49.800;8.596;2023-07-24T22:16:26;5.45;;;4.97;;
36303;SDS011;22335;49.800;8.596;2023-07-24T22:23:10;5.40;;;5.07;;
36303;SDS011;22335;49.800;8.596;2023-07-24T22:29:54;5.35;;;5.03;;
36303;SDS011;22335;49.800;8.596;2023-07-24T22:36:39;5.00;;;4.60;;
36303;SDS011;22335;49.800;8.596;2023-07-24T22:43:23;6.17;;;5.37;;
36303;SDS011;22335;49.800;8.596;2023-07-24T22:50:06;5.78;;;5.38;;
36303;SDS011;22335;49.800;8.596;2023-07-24T22:56:52;4.80;;;4.50;;
36303;SDS011;22335;49.800;8.596;2023-07-24T23:03:36;5.40;;;5.10;;
36303;SDS011;22335;49.800;8.596;2023-07-24T23:10:20;5.00;;;4.50;;
36303;SDS011;22335;49.800;8.596;2023-07-24T23:17:05;5.80;;;5.50;;
36303;SDS011;22335;49.800;8.596;2023-07-24T23:23:49;5.35;;;5.05;;
36303;SDS011;22335;49.800;8.596;2023-07-24T23:30:38;5.30;;;4.90;;
36303;SDS011;22335;49.800;8.596;2023-07-24T23:37:23;5.63;;;5.22;;
36303;SDS011;22335;49.800;8.596;2023-07-24T23:44:07;5.80;;;5.40;;
36303;SDS011;22335;49.800;8.596;2023-07-24T23:50:51;5.68;;;5.28;;
36303;SDS011;22335;49.800;8.596;2023-07-24T23:57:36;6.00;;;5.55;;
